Time;durP1;ratioP1;P1;durP2;ratioP2;P2;SDS_P1;SDS_P2;PMS_P1;PMS_P2;Temp;Humidity;BMP_temperature;BMP_pressure;BME280_temperature;BME280_humidity;BME280_pressure;Samples;Min_cycle;Max_cycle;Signal;HPM_P1;HPM_P2
2023/06/15 00:00:57;;;;;;;2.53;1.67;;;25.70;1.00;;;;;;4840828;29;20094;-53
2023/06/15 00:03:25;;;;;;;2.88;0.98;;;25.70;1.00;;;;;;4841227;29;20077;-55
2023/06/15 00:05:52;;;;;;;5.10;1.80;;;25.70;1.00;;;;;;4841304;29;20034;-53
2023/06/15 00:08:19;;;;;;;2.33;1.63;;;25.70;1.00;;;;;;4841037;29;20062;-55
2023/06/15 00:10:46;;;;;;;2.13;1.60;;;25.70;1.00;;;;;;4840701;29;20042;-63
2023/06/15 00:13:14;;;;;;;2.03;1.30;;;25.70;1.00;;;;;;4840991;29;20526;-55
2023/06/15 00:15:41;;;;;;;3.05;1.33;;;25.70;1.00;;;;;;4840992;29;20083;-53
2023/06/15 00:18:08;;;;;;;2.78;1.52;;;25.70;1.00;;;;;;4841063;29;20513;-53
2023/06/15 00:20:35;;;;;;;1.92;1.25;;;25.70;1.00;;;;;;4833265;29;20038;-56
2023/06/15 00:23:02;;;;;;;2.00;1.23;;;25.70;1.00;;;;;;4840798;29;20053;-55
2023/06/15 00:25:30;;;;;;;3.03;1.50;;;25.70;1.00;;;;;;4841185;29;20049;-56
2023/06/15 00:27:57;;;;;;;2.35;0.93;;;25.70;1.00;;;;;;4840978;29;20518;-55
2023/06/15 00:30:23;;;;;;;4.47;1.25;;;25.70;1.00;;;;;;4839536;29;20054;-51
2023/06/15 00:32:50;;;;;;;3.42;1.52;;;25.60;1.00;;;;;;4839574;29;20088;-56
2023/06/15 00:35:17;;;;;;;4.18;1.85;;;25.60;1.00;;;;;;4838959;29;20057;-55
2023/06/15 00:37:45;;;;;;;2.80;1.55;;;25.60;1.00;;;;;;4840984;29;20045;-55
2023/06/15 00:40:12;;;;;;;3.42;1.55;;;25.60;1.00;;;;;;4839585;29;20506;-56
2023/06/15 00:42:39;;;;;;;3.38;1.40;;;25.60;1.00;;;;;;4839473;29;20506;-60
2023/06/15 00:45:07;;;;;;;3.03;1.05;;;25.60;1.00;;;;;;4840598;29;20076;-56
2023/06/15 00:47:38;;;;;;;2.47;1.30;;;25.60;1.00;;;;;;4839453;29;20084;-52
2023/06/15 00:50:10;;;;;;;5.60;2.20;;;25.60;1.00;;;;;;4847176;29;20414;-54
2023/06/15 00:52:38;;;;;;;4.68;1.40;;;25.60;1.00;;;;;;4841977;29;20073;-56
2023/06/15 00:55:05;;;;;;;2.67;1.75;;;25.60;1.00;;;;;;4849886;29;20065;-53
2023/06/15 00:57:34;;;;;;;2.83;1.55;;;25.60;1.00;;;;;;4843346;29;20054;-53
2023/06/15 01:00:04;;;;;;;1.83;1.13;;;25.60;1.00;;;;;;4842935;29;20060;-55
2023/06/15 01:02:34;;;;;;;4.18;1.58;;;25.60;1.00;;;;;;4850368;29;20130;-54
2023/06/15 01:05:01;;;;;;;2.17;1.33;;;25.60;1.00;;;;;;4844464;29;20038;-54
2023/06/15 01:07:28;;;;;;;2.40;1.52;;;25.50;1.00;;;;;;4843082;29;20140;-56
2023/06/15 01:09:57;;;;;;;3.88;1.88;;;25.50;1.00;;;;;;4844004;29;20046;-55
2023/06/15 01:12:25;;;;;;;4.07;1.38;;;25.50;1.00;;;;;;4842535;29;20101;-53
2023/06/15 01:14:52;;;;;;;3.88;1.10;;;25.50;1.00;;;;;;4848835;29;20490;-54
2023/06/15 01:17:23;;;;;;;2.92;1.48;;;25.50;1.00;;;;;;4844578;29;20037;-56
2023/06/15 01:19:57;;;;;;;3.13;1.00;;;25.50;1.00;;;;;;4843885;29;20057;-49
2023/06/15 01:22:45;;;;;;;3.33;1.30;;;25.50;1.00;;;;;;4855903;29;20061;-50
2023/06/15 01:25:40;;;;;;;3.45;1.38;;;25.50;1.00;;;;;;4843830;29;20506;-50
2023/06/15 01:28:10;;;;;;;4.32;1.90;;;25.50;1.00;;;;;;4839557;29;20106;-51
2023/06/15 01:30:44;;;;;;;5.07;1.25;;;25.50;1.00;;;;;;4842278;29;20046;-50
2023/06/15 01:33:11;;;;;;;2.50;1.08;;;25.50;1.00;;;;;;4842418;29;20046;-51
2023/06/15 01:35:39;;;;;;;2.38;1.48;;;25.50;1.00;;;;;;4842365;29;20046;-50
2023/06/15 01:38:09;;;;;;;2.75;1.02;;;25.50;1.00;;;;;;4843709;29;20128;-51
2023/06/15 01:40:41;;;;;;;5.97;1.85;;;25.40;1.00;;;;;;4843216;29;20121;-55
2023/06/15 01:43:14;;;;;;;2.65;1.83;;;25.40;1.00;;;;;;4842117;29;20110;-54
2023/06/15 01:45:42;;;;;;;;;;;25.40;1.00;;;;;;4842260;29;20042;-52
2023/06/15 01:48:09;;;;;;;2.00;1.05;;;25.40;1.00;;;;;;4844690;29;19924;-49
2023/06/15 01:50:36;;;;;;;2.15;1.00;;;25.40;1.00;;;;;;4850726;29;20038;-53
2023/06/15 01:53:04;;;;;;;3.42;1.20;;;25.40;1.00;;;;;;4841712;29;20422;-50
2023/06/15 01:55:32;;;;;;;4.93;1.10;;;25.40;1.00;;;;;;4841978;29;20045;-51
2023/06/15 01:57:59;;;;;;;2.47;1.20;;;25.40;1.00;;;;;;4843097;29;20050;-51
2023/06/15 02:00:27;;;;;;;3.40;1.20;;;25.40;1.00;;;;;;4841646;29;20479;-53
2023/06/15 02:02:54;;;;;;;3.38;1.20;;;25.40;1.00;;;;;;4841938;29;20042;-50
2023/06/15 02:05:21;;;;;;;5.15;2.08;;;25.40;1.00;;;;;;4842862;29;20372;-52
2023/06/15 02:07:48;;;;;;;2.25;1.15;;;25.40;1.00;;;;;;4839528;29;20087;-50
2023/06/15 02:10:16;;;;;;;2.55;1.30;;;25.40;1.00;;;;;;4856799;29;20042;-52
2023/06/15 02:12:42;;;;;;;3.90;1.23;;;25.40;1.00;;;;;;4834048;29;20046;-50
2023/06/15 02:15:17;;;;;;;2.47;1.17;;;25.40;1.00;;;;;;4841367;29;20053;-50
2023/06/15 02:17:45;;;;;;;1.75;1.20;;;25.40;1.00;;;;;;4847250;29;20068;-53
2023/06/15 02:20:12;;;;;;;1.60;1.10;;;25.40;1.00;;;;;;4841477;29;20054;-50
2023/06/15 02:22:39;;;;;;;2.25;1.15;;;25.40;1.00;;;;;;4841371;29;20056;-50
2023/06/15 02:25:08;;;;;;;2.30;1.20;;;25.40;1.00;;;;;;4841468;29;20406;-51
2023/06/15 02:27:35;;;;;;;3.70;1.58;;;25.30;1.00;;;;;;4841410;29;20056;-51
2023/06/15 02:30:02;;;;;;;5.03;1.30;;;25.30;1.00;;;;;;4841309;29;20149;-50
2023/06/15 02:32:36;;;;;;;3.03;1.05;;;25.30;1.00;;;;;;4841152;29;20058;-53
2023/06/15 02:35:07;;;;;;;3.30;1.83;;;25.30;1.00;;;;;;4841469;29;20050;-53
2023/06/15 02:37:35;;;;;;;4.50;1.42;;;25.30;1.00;;;;;;4841155;29;20046;-52
2023/06/15 02:40:04;;;;;;;2.00;1.20;;;25.30;1.00;;;;;;4841255;29;20038;-51
2023/06/15 02:42:31;;;;;;;1.92;1.17;;;25.30;1.00;;;;;;4840932;29;20422;-50
2023/06/15 02:44:58;;;;;;;2.88;1.33;;;25.30;1.00;;;;;;4841168;29;20459;-50
2023/06/15 02:47:26;;;;;;;2.38;1.42;;;25.20;1.00;;;;;;4840438;29;20054;-50
2023/06/15 02:49:54;;;;;;;1.50;0.98;;;25.30;1.00;;;;;;4840996;29;20052;-52
2023/06/15 02:52:21;;;;;;;3.72;1.23;;;25.30;1.00;;;;;;4842055;29;20102;-53
2023/06/15 02:54:48;;;;;;;2.55;1.40;;;25.30;1.00;;;;;;4841132;29;20065;-52
2023/06/15 02:57:18;;;;;;;4.63;1.20;;;25.30;1.00;;;;;;4841056;29;20105;-52
2023/06/15 02:59:58;;;;;;;2.65;1.23;;;25.30;1.00;;;;;;4840844;29;20067;-53
2023/06/15 03:02:28;;;;;;;2.47;1.50;;;25.20;1.00;;;;;;4840508;29;20472;-52
2023/06/15 03:04:54;;;;;;;1.88;1.15;;;25.20;1.00;;;;;;4840824;29;20102;-52
2023/06/15 03:07:30;;;;;;;3.72;1.20;;;25.20;1.00;;;;;;4840734;29;20046;-50
2023/06/15 03:10:22;;;;;;;2.88;1.20;;;25.20;1.00;;;;;;4841386;29;20519;-50
2023/06/15 03:12:49;;;;;;;2.50;1.23;;;25.20;1.00;;;;;;4856014;29;20376;-53
2023/06/15 03:15:17;;;;;;;3.08;1.15;;;25.20;1.00;;;;;;4839876;29;20054;-51
2023/06/15 03:17:45;;;;;;;1.50;0.80;;;25.20;1.00;;;;;;4839360;29;20136;-57
2023/06/15 03:20:16;;;;;;;2.33;1.30;;;25.20;1.00;;;;;;4839056;29;20046;-51
2023/06/15 03:22:44;;;;;;;2.05;1.30;;;25.10;1.00;;;;;;4840682;29;20042;-50
2023/06/15 03:25:11;;;;;;;2.28;1.17;;;25.10;1.00;;;;;;4839694;29;20038;-51
2023/06/15 03:27:42;;;;;;;3.58;1.10;;;25.20;1.00;;;;;;4841378;29;20050;-50
2023/06/15 03:30:14;;;;;;;1.55;1.02;;;25.10;1.00;;;;;;4840025;29;20049;-50
2023/06/15 03:32:41;;;;;;;2.78;1.38;;;25.10;1.00;;;;;;4843126;29;20475;-52
2023/06/15 03:35:12;;;;;;;3.65;1.33;;;25.10;1.00;;;;;;4840085;29;20049;-54
2023/06/15 03:37:40;;;;;;;2.53;1.10;;;25.10;1.00;;;;;;4840225;29;20145;-50
2023/06/15 03:40:08;;;;;;;1.98;1.02;;;25.10;1.00;;;;;;4841143;29;20048;-51
2023/06/15 03:42:35;;;;;;;2.92;1.25;;;25.10;1.00;;;;;;4839666;29;20098;-54
2023/06/15 03:45:04;;;;;;;7.70;2.38;;;25.10;1.00;;;;;;4839846;29;20042;-50
2023/06/15 03:47:32;;;;;;;3.13;1.10;;;25.10;1.00;;;;;;4839976;29;20046;-50
2023/06/15 03:49:59;;;;;;;1.63;1.20;;;25.10;1.00;;;;;;4839248;29;20133;-54
2023/06/15 03:52:26;;;;;;;3.17;1.23;;;25.10;1.00;;;;;;4839504;29;20077;-50
2023/06/15 03:54:53;;;;;;;4.07;1.30;;;25.10;1.00;;;;;;4839640;29;20137;-50
2023/06/15 03:57:20;;;;;;;1.75;1.10;;;25.10;1.00;;;;;;4839975;29;20050;-50
2023/06/15 03:59:49;;;;;;;2.90;1.08;;;25.10;1.00;;;;;;4839538;29;20114;-50
2023/06/15 04:02:16;;;;;;;1.48;1.05;;;25.10;1.00;;;;;;4840751;29;20125;-51
2023/06/15 04:04:43;;;;;;;1.42;1.00;;;25.10;1.00;;;;;;4839633;29;20070;-50
2023/06/15 04:07:09;;;;;;;2.30;1.40;;;25.10;1.00;;;;;;4840890;29;20048;-51
2023/06/15 04:09:36;;;;;;;3.47;1.40;;;25.00;1.00;;;;;;4839568;29;20058;-50
2023/06/15 04:12:04;;;;;;;3.63;2.55;;;25.00;1.00;;;;;;4834277;29;20329;-56
2023/06/15 04:14:32;;;;;;;3.88;1.90;;;25.00;1.00;;;;;;4852548;29;20128;-52
2023/06/15 04:17:00;;;;;;;3.88;1.67;;;25.00;1.00;;;;;;4840777;29;20053;-51
2023/06/15 04:19:27;;;;;;;4.38;1.63;;;25.00;1.00;;;;;;4846668;29;20070;-51
2023/06/15 04:21:55;;;;;;;7.10;1.58;;;25.00;1.00;;;;;;4839295;29;20046;-51
2023/06/15 04:24:22;;;;;;;9.05;1.90;;;24.90;1.00;;;;;;4839521;29;20072;-51
2023/06/15 04:26:49;;;;;;;18.30;3.40;;;24.90;1.00;;;;;;4833759;29;20038;-50
2023/06/15 04:29:18;;;;;;;8.10;1.83;;;24.90;1.00;;;;;;4851082;29;20301;-50
2023/06/15 04:31:54;;;;;;;5.35;1.45;;;24.90;1.00;;;;;;4842907;29;20475;-52
2023/06/15 04:34:27;;;;;;;11.45;2.22;;;24.90;1.00;;;;;;4843155;29;20064;-50
2023/06/15 04:36:54;;;;;;;9.70;2.85;;;24.90;1.00;;;;;;4843165;29;20506;-52
2023/06/15 04:39:27;;;;;;;6.05;2.58;;;24.80;1.00;;;;;;4843147;29;20061;-50
2023/06/15 04:41:59;;;;;;;4.80;1.80;;;24.90;1.00;;;;;;4842727;29;20499;-50
2023/06/15 04:44:26;;;;;;;8.88;1.83;;;24.80;1.00;;;;;;4843110;29;20053;-51
2023/06/15 04:46:53;;;;;;;3.70;1.70;;;24.80;1.00;;;;;;4843095;29;20050;-50
2023/06/15 04:49:19;;;;;;;6.28;1.58;;;24.90;1.00;;;;;;4843005;29;20102;-50
2023/06/15 04:51:48;;;;;;;10.25;1.48;;;24.80;1.00;;;;;;4875217;23;20147;-51
2023/06/15 04:54:15;;;;;;;3.70;1.77;;;24.80;1.00;;;;;;4880347;29;20049;-51
2023/06/15 04:56:42;;;;;;;6.00;1.45;;;24.80;1.00;;;;;;4881425;29;20041;-51
2023/06/15 04:59:09;;;;;;;9.02;1.65;;;24.80;1.00;;;;;;4880032;29;20079;-50
2023/06/15 05:01:37;;;;;;;6.30;1.95;;;24.80;1.00;;;;;;4879566;29;20041;-49
2023/06/15 05:04:08;;;;;;;2.20;1.48;;;24.80;1.00;;;;;;4879983;29;20203;-50
2023/06/15 05:06:35;;;;;;;4.13;1.48;;;24.80;1.00;;;;;;4879498;29;20041;-50
2023/06/15 05:09:02;;;;;;;3.42;1.80;;;24.80;1.00;;;;;;4875897;29;20094;-52
2023/06/15 05:11:29;;;;;;;4.57;1.58;;;24.80;1.00;;;;;;4871723;29;20136;-50
2023/06/15 05:13:56;;;;;;;5.65;1.60;;;24.80;1.00;;;;;;4880791;29;20869;-50
2023/06/15 05:16:23;;;;;;;2.95;1.52;;;24.80;1.00;;;;;;4879101;29;20509;-52
2023/06/15 05:18:52;;;;;;;5.93;2.28;;;24.80;1.00;;;;;;4879306;29;20045;-50
2023/06/15 05:21:20;;;;;;;6.65;2.30;;;24.80;1.00;;;;;;4879239;29;20033;-50
2023/06/15 05:23:47;;;;;;;8.93;2.33;;;24.80;1.00;;;;;;4879397;29;21638;-51
2023/06/15 05:26:15;;;;;;;2.90;1.60;;;24.80;1.00;;;;;;4879297;29;20057;-52
2023/06/15 05:28:45;;;;;;;4.93;1.75;;;24.80;1.00;;;;;;4879239;29;20104;-52
2023/06/15 05:31:13;;;;;;;3.55;1.33;;;24.80;1.00;;;;;;4878973;29;20113;-52
2023/06/15 05:33:40;;;;;;;6.47;1.77;;;24.80;1.00;;;;;;4879352;29;20048;-50
2023/06/15 05:36:07;;;;;;;4.07;1.75;;;24.80;1.00;;;;;;4879187;29;20052;-50
2023/06/15 05:38:55;;;;;;;2.25;1.30;;;24.80;1.00;;;;;;4879366;29;20411;-50
2023/06/15 05:41:21;;;;;;;3.60;1.95;;;24.80;1.00;;;;;;4878723;29;20064;-55
2023/06/15 05:43:48;;;;;;;4.57;1.55;;;24.80;1.00;;;;;;4880340;29;20070;-50
2023/06/15 05:46:15;;;;;;;4.88;1.67;;;24.80;1.00;;;;;;4879090;29;20501;-51
2023/06/15 05:48:42;;;;;;;2.83;1.52;;;24.80;1.00;;;;;;4878980;29;20059;-50
2023/06/15 05:51:10;;;;;;;5.03;1.73;;;24.80;1.00;;;;;;4878478;29;20041;-50
2023/06/15 05:53:38;;;;;;;2.67;2.22;;;24.80;1.00;;;;;;4878848;29;20140;-49
2023/06/15 05:56:06;;;;;;;4.88;1.83;;;24.80;1.00;;;;;;4878855;29;20045;-50
2023/06/15 05:58:33;;;;;;;4.35;2.35;;;24.80;1.00;;;;;;4878771;29;20049;-52
2023/06/15 06:01:00;;;;;;;3.88;1.55;;;24.80;1.00;;;;;;4878304;29;20044;-50
2023/06/15 06:03:26;;;;;;;4.70;1.10;;;24.80;1.00;;;;;;4878655;29;20545;-50
2023/06/15 06:05:53;;;;;;;3.28;1.52;;;24.80;1.00;;;;;;4878608;29;20279;-50
2023/06/15 06:08:21;;;;;;;2.92;1.35;;;24.80;1.00;;;;;;4879938;29;20533;-50
2023/06/15 06:10:48;;;;;;;2.78;1.50;;;24.80;1.00;;;;;;4878279;29;20136;-52
2023/06/15 06:13:34;;;;;;;3.88;2.00;;;24.80;1.00;;;;;;4878658;29;20041;-50
2023/06/15 06:16:02;;;;;;;3.13;1.83;;;24.80;1.00;;;;;;4878442;29;20245;-50
2023/06/15 06:18:29;;;;;;;2.83;1.73;;;24.80;1.00;;;;;;4878434;29;20049;-52
2023/06/15 06:20:56;;;;;;;2.60;1.40;;;24.80;1.00;;;;;;4878033;29;20069;-51
2023/06/15 06:23:24;;;;;;;4.35;1.98;;;24.80;1.00;;;;;;4878520;29;20045;-51
2023/06/15 06:25:51;;;;;;;4.07;1.90;;;24.80;1.00;;;;;;4878054;29;20045;-50
2023/06/15 06:28:19;;;;;;;3.38;1.50;;;24.80;1.00;;;;;;4878417;29;20596;-53
2023/06/15 06:30:46;;;;;;;2.80;1.85;;;24.80;1.00;;;;;;4879251;29;20055;-50
2023/06/15 06:33:12;;;;;;;3.50;1.58;;;24.80;1.00;;;;;;4879388;29;20076;-51
2023/06/15 06:35:39;;;;;;;1.77;1.10;;;24.90;1.00;;;;;;4879286;29;20112;-51
2023/06/15 06:38:06;;;;;;;2.15;1.20;;;24.90;1.00;;;;;;4879436;29;20378;-50
2023/06/15 06:40:33;;;;;;;5.82;1.88;;;24.90;1.00;;;;;;4879044;29;20125;-52
2023/06/15 06:42:59;;;;;;;2.08;1.55;;;24.90;1.00;;;;;;4879049;29;20041;-50
2023/06/15 06:45:26;;;;;;;2.22;1.70;;;24.90;1.00;;;;;;4879200;29;20048;-50
2023/06/15 06:47:56;;;;;;;2.67;1.85;;;24.90;1.00;;;;;;4879169;29;20045;-50
2023/06/15 06:50:23;;;;;;;2.97;1.67;;;24.90;1.00;;;;;;4878205;29;20041;-51
2023/06/15 06:52:50;;;;;;;2.92;1.45;;;24.90;1.00;;;;;;4878865;29;20049;-50
2023/06/15 06:55:16;;;;;;;2.38;1.38;;;24.90;1.00;;;;;;4878953;29;20052;-52
2023/06/15 06:57:44;;;;;;;4.10;1.73;;;24.90;1.00;;;;;;4878982;29;20077;-51
2023/06/15 07:00:11;;;;;;;3.10;1.42;;;25.00;1.00;;;;;;4878888;29;20454;-50
2023/06/15 07:02:38;;;;;;;3.05;1.55;;;25.00;1.00;;;;;;4879048;29;20041;-53
2023/06/15 07:05:05;;;;;;;3.80;2.58;;;25.00;1.00;;;;;;4878896;29;20041;-51
2023/06/15 07:07:32;;;;;;;3.00;1.75;;;25.00;1.00;;;;;;4879157;29;20391;-51
2023/06/15 07:09:59;;;;;;;2.05;1.23;;;25.00;1.00;;;;;;4878822;29;20401;-50
2023/06/15 07:12:25;;;;;;;2.88;1.80;;;25.00;1.00;;;;;;4878586;29;20049;-53
2023/06/15 07:14:52;;;;;;;2.22;1.70;;;25.00;1.00;;;;;;4878737;29;20080;-50
2023/06/15 07:17:19;;;;;;;7.75;1.20;;;25.00;1.00;;;;;;4879190;29;20101;-50
2023/06/15 07:19:46;;;;;;;2.90;2.22;;;25.10;1.00;;;;;;4878577;29;20045;-50
2023/06/15 07:22:13;;;;;;;2.80;1.80;;;25.10;1.00;;;;;;4878552;29;20494;-53
2023/06/15 07:24:39;;;;;;;2.38;1.50;;;25.10;1.00;;;;;;4878832;29;20045;-64
2023/06/15 07:27:07;;;;;;;1.73;1.33;;;25.10;1.00;;;;;;4878520;29;20112;-51
2023/06/15 07:29:34;;;;;;;2.95;1.50;;;25.10;1.00;;;;;;4878618;29;20049;-52
2023/06/15 07:32:00;;;;;;;2.80;1.70;;;25.10;1.00;;;;;;4878287;29;20048;-50
2023/06/15 07:34:27;;;;;;;3.35;1.50;;;25.10;1.00;;;;;;4878449;29;20049;-50
2023/06/15 07:36:54;;;;;;;2.15;1.45;;;25.10;1.00;;;;;;4878631;29;20961;-50
2023/06/15 07:39:21;;;;;;;3.20;1.45;;;25.10;1.00;;;;;;4878352;29;20087;-50
2023/06/15 07:41:48;;;;;;;4.93;1.40;;;25.10;1.00;;;;;;4878221;29;20073;-50
2023/06/15 07:44:15;;;;;;;3.97;1.98;;;25.10;1.00;;;;;;4878493;29;20051;-50
2023/06/15 07:46:42;;;;;;;2.83;1.80;;;25.10;1.00;;;;;;4878650;29;20045;-51
2023/06/15 07:49:09;;;;;;;2.80;1.98;;;25.10;1.00;;;;;;4882118;29;20041;-50
2023/06/15 07:51:36;;;;;;;3.10;1.80;;;25.20;1.00;;;;;;4881287;29;20048;-52
2023/06/15 07:54:20;;;;;;;2.20;1.50;;;25.20;1.00;;;;;;4878664;29;20469;-51
2023/06/15 07:56:47;;;;;;;4.38;1.40;;;25.20;1.00;;;;;;4878992;29;20048;-51
2023/06/15 07:59:14;;;;;;;3.28;1.70;;;25.20;1.00;;;;;;4881983;29;20048;-51
2023/06/15 08:01:41;;;;;;;3.53;1.55;;;25.20;1.00;;;;;;4881627;29;20584;-52
2023/06/15 08:04:08;;;;;;;3.05;1.42;;;25.20;1.00;;;;;;4882930;29;20422;-50
2023/06/15 08:06:35;;;;;;;3.65;1.75;;;25.20;1.00;;;;;;4882994;29;20045;-50
2023/06/15 08:09:02;;;;;;;3.03;1.60;;;25.20;1.00;;;;;;4882214;29;20524;-50
2023/06/15 08:11:30;;;;;;;2.17;1.60;;;25.20;1.00;;;;;;4882466;29;20041;-50
2023/06/15 08:13:57;;;;;;;2.80;1.30;;;25.20;1.00;;;;;;4882793;29;20063;-50
2023/06/15 08:16:24;;;;;;;2.42;1.48;;;25.20;1.00;;;;;;4882476;29;20394;-50
2023/06/15 08:18:50;;;;;;;2.30;1.70;;;25.20;1.00;;;;;;4882624;29;20128;-50
2023/06/15 08:21:17;;;;;;;3.60;1.70;;;25.20;1.00;;;;;;4877933;29;20060;-52
2023/06/15 08:23:44;;;;;;;2.40;1.35;;;25.20;1.00;;;;;;4877926;29;20037;-52
2023/06/15 08:26:11;;;;;;;2.90;1.70;;;25.20;1.00;;;;;;4877861;29;20063;-52
2023/06/15 08:28:38;;;;;;;1.80;1.20;;;25.20;1.00;;;;;;4877475;29;20112;-57
2023/06/15 08:31:19;;;;;;;2.35;1.52;;;25.20;1.00;;;;;;4877486;29;20072;-54
2023/06/15 08:33:46;;;;;;;3.05;1.80;;;25.20;1.00;;;;;;4877702;29;20524;-54
2023/06/15 08:36:13;;;;;;;2.15;1.65;;;25.30;1.00;;;;;;4877591;29;20049;-50
2023/06/15 08:38:40;;;;;;;3.75;1.60;;;25.30;1.00;;;;;;4877431;29;20053;-56
2023/06/15 08:41:07;;;;;;;3.72;1.42;;;25.30;1.00;;;;;;4877343;29;20101;-53
2023/06/15 08:43:35;;;;;;;2.50;1.85;;;25.30;1.00;;;;;;4877684;29;20041;-53
2023/06/15 08:46:03;;;;;;;2.90;2.00;;;25.30;1.00;;;;;;4877396;29;20120;-51
2023/06/15 08:48:32;;;;;;;2.13;1.45;;;25.30;1.00;;;;;;4876276;29;20128;-55
2023/06/15 08:50:59;;;;;;;4.53;1.38;;;25.30;1.00;;;;;;4877022;29;20506;-52
2023/06/15 08:53:27;;;;;;;2.60;1.85;;;25.30;1.00;;;;;;4877543;29;20505;-51
2023/06/15 08:55:55;;;;;;;3.55;2.03;;;25.30;1.00;;;;;;4877361;29;20052;-52
2023/06/15 08:58:22;;;;;;;3.55;1.35;;;25.30;1.00;;;;;;4877491;29;20051;-54
2023/06/15 09:00:50;;;;;;;4.30;1.88;;;25.30;1.00;;;;;;4877129;29;20049;-64
2023/06/15 09:03:18;;;;;;;2.53;1.58;;;25.30;1.00;;;;;;4877282;29;20051;-51
2023/06/15 09:05:45;;;;;;;6.07;1.63;;;25.30;1.00;;;;;;4877344;29;20060;-53
2023/06/15 09:08:11;;;;;;;3.15;1.85;;;25.30;1.00;;;;;;4877387;29;20045;-50
2023/06/15 09:10:41;;;;;;;3.05;2.00;;;25.30;1.00;;;;;;4877286;29;20159;-54
2023/06/15 09:13:16;;;;;;;2.75;1.80;;;25.40;1.00;;;;;;4879103;29;20037;-53
2023/06/15 09:15:50;;;;;;;3.50;1.25;;;25.40;1.00;;;;;;4879537;29;20132;-56
2023/06/15 09:18:16;;;;;;;2.92;1.80;;;25.40;1.00;;;;;;4880885;29;20176;-56
2023/06/15 09:20:43;;;;;;;4.35;1.60;;;25.40;1.00;;;;;;4880565;29;20072;-50
2023/06/15 09:23:12;;;;;;;2.53;1.40;;;25.40;1.00;;;;;;4880598;29;20041;-55
2023/06/15 09:25:54;;;;;;;2.40;1.50;;;25.40;1.00;;;;;;4880421;29;20101;-52
2023/06/15 09:28:24;;;;;;;4.18;1.70;;;25.40;1.00;;;;;;4880712;29;20105;-53
2023/06/15 09:30:59;;;;;;;6.18;1.52;;;25.40;1.00;;;;;;4880311;29;20060;-53
2023/06/15 09:33:26;;;;;;;2.05;1.65;;;25.40;1.00;;;;;;4880481;29;20053;-51
2023/06/15 09:36:06;;;;;;;2.53;1.60;;;25.40;1.00;;;;;;4880773;29;20083;-55
2023/06/15 09:38:45;;;;;;;2.40;1.70;;;25.40;1.00;;;;;;4880895;29;20057;-57
2023/06/15 09:41:14;;;;;;;1.98;1.52;;;25.40;1.00;;;;;;4880430;29;20053;-54
2023/06/15 09:43:41;;;;;;;2.83;1.48;;;25.40;1.00;;;;;;4880634;29;20119;-56
2023/06/15 09:46:16;;;;;;;3.08;1.65;;;25.40;1.00;;;;;;4880428;29;20065;-56
2023/06/15 09:48:44;;;;;;;3.35;2.20;;;25.40;1.00;;;;;;4880657;29;20053;-56
2023/06/15 09:51:11;;;;;;;3.33;1.90;;;25.40;1.00;;;;;;4880023;29;20069;-55
2023/06/15 09:53:39;;;;;;;3.13;1.63;;;25.40;1.00;;;;;;4880403;29;20055;-54
2023/06/15 09:56:08;;;;;;;2.47;1.55;;;25.40;1.00;;;;;;4880425;29;20614;-56
2023/06/15 09:58:55;;;;;;;2.05;1.48;;;25.40;1.00;;;;;;4880209;29;20064;-54
2023/06/15 10:01:24;;;;;;;2.88;1.45;;;25.40;1.00;;;;;;4879780;29;20497;-54
2023/06/15 10:03:52;;;;;;;2.13;1.60;;;25.40;1.00;;;;;;4879870;29;20501;-53
2023/06/15 10:06:22;;;;;;;3.78;1.88;;;25.40;1.00;;;;;;4880026;29;20101;-54
2023/06/15 10:08:53;;;;;;;4.05;1.70;;;25.40;1.00;;;;;;4880144;29;20056;-53
2023/06/15 10:11:21;;;;;;;4.20;1.90;;;25.40;1.00;;;;;;4879631;29;20474;-51
2023/06/15 10:14:02;;;;;;;2.95;1.63;;;25.40;1.00;;;;;;4880133;29;20045;-53
2023/06/15 10:16:30;;;;;;;3.28;1.80;;;25.40;1.00;;;;;;4879828;29;20049;-54
2023/06/15 10:19:02;;;;;;;5.97;2.22;;;25.40;1.00;;;;;;4879703;29;20049;-53
2023/06/15 10:21:32;;;;;;;8.88;1.92;;;25.40;1.00;;;;;;4879307;29;20049;-53
2023/06/15 10:24:05;;;;;;;2.40;1.42;;;25.40;1.00;;;;;;4878658;29;20049;-56
2023/06/15 10:26:32;;;;;;;2.97;1.65;;;25.40;1.00;;;;;;4879767;29;20053;-51
2023/06/15 10:29:08;;;;;;;2.97;1.50;;;25.40;1.00;;;;;;4879597;29;20041;-54
2023/06/15 10:31:43;;;;;;;2.78;1.83;;;25.40;1.00;;;;;;4879168;29;20037;-52
2023/06/15 10:34:28;;;;;;;3.30;1.80;;;25.40;1.00;;;;;;4878350;29;20047;-54
2023/06/15 10:37:27;;;;;;;3.15;1.80;;;25.40;1.00;;;;;;4879275;29;20053;-51
2023/06/15 10:40:05;;;;;;;2.78;1.60;;;25.40;1.00;;;;;;4861182;29;20065;-53
2023/06/15 10:42:47;;;;;;;3.05;1.70;;;25.40;1.00;;;;;;4879151;29;20049;-55
2023/06/15 10:45:31;;;;;;;3.92;1.73;;;25.40;1.00;;;;;;4878973;29;20049;-50
2023/06/15 10:47:59;;;;;;;2.22;1.63;;;25.40;1.00;;;;;;4879169;29;20049;-53
2023/06/15 10:50:28;;;;;;;4.53;2.10;;;25.40;1.00;;;;;;4878982;29;20098;-53
2023/06/15 10:52:56;;;;;;;2.40;1.98;;;25.40;1.00;;;;;;4878932;29;20501;-57
2023/06/15 10:55:23;;;;;;;2.50;1.58;;;25.40;1.00;;;;;;4879077;29;20045;-57
2023/06/15 10:58:14;;;;;;;2.22;1.60;;;25.40;1.00;;;;;;4878934;29;20128;-57
2023/06/15 11:00:49;;;;;;;4.38;1.60;;;25.40;1.00;;;;;;4873109;29;20136;-57
2023/06/15 11:03:26;;;;;;;2.50;1.90;;;25.40;1.00;;;;;;4878712;29;20101;-56
2023/06/15 11:06:30;;;;;;;2.53;1.67;;;25.40;1.00;;;;;;4878812;29;20045;-65
2023/06/15 11:09:07;;;;;;;3.15;1.60;;;25.40;1.00;;;;;;4839579;29;20050;-57
2023/06/15 11:11:36;;;;;;;2.72;1.60;;;25.40;1.00;;;;;;4874010;29;20057;-57
2023/06/15 11:14:06;;;;;;;3.15;1.50;;;25.40;1.00;;;;;;4878795;29;20065;-55
2023/06/15 11:16:34;;;;;;;3.20;1.80;;;25.40;1.00;;;;;;4879020;29;20053;-54
2023/06/15 11:19:10;;;;;;;2.70;1.95;;;25.40;1.00;;;;;;4878572;29;20053;-56
2023/06/15 11:21:41;;;;;;;3.33;1.90;;;25.40;1.00;;;;;;4878253;29;20060;-57
2023/06/15 11:24:13;;;;;;;4.28;1.70;;;25.40;1.00;;;;;;4878423;29;20041;-57
2023/06/15 11:26:41;;;;;;;2.70;1.88;;;25.40;1.00;;;;;;4878672;29;20037;-55
2023/06/15 11:29:12;;;;;;;2.50;1.27;;;25.40;1.00;;;;;;4874819;29;20117;-55
2023/06/15 11:31:42;;;;;;;1.85;1.30;;;25.40;1.00;;;;;;4878131;29;20077;-56
2023/06/15 11:34:10;;;;;;;2.47;1.80;;;25.40;1.00;;;;;;4877279;29;20048;-57
2023/06/15 11:36:37;;;;;;;2.65;1.63;;;25.40;1.00;;;;;;4878225;29;20172;-55
2023/06/15 11:39:08;;;;;;;4.22;2.00;;;25.40;1.00;;;;;;4877293;29;20049;-57
2023/06/15 11:41:35;;;;;;;2.88;1.65;;;25.40;1.00;;;;;;4878189;29;20059;-57
2023/06/15 11:44:02;;;;;;;4.28;1.55;;;25.40;1.00;;;;;;4878267;29;20124;-55
2023/06/15 11:46:28;;;;;;;5.57;1.80;;;25.40;1.00;;;;;;4878086;29;20037;-57
2023/06/15 11:48:57;;;;;;;3.63;2.22;;;25.40;1.00;;;;;;4878339;29;20128;-57
2023/06/15 11:51:25;;;;;;;2.47;1.73;;;25.40;1.00;;;;;;4877868;29;20470;-57
2023/06/15 11:53:54;;;;;;;2.10;1.58;;;25.40;1.00;;;;;;4878239;29;20045;-57
2023/06/15 11:56:21;;;;;;;2.33;1.60;;;25.40;1.00;;;;;;4878269;29;20093;-57
2023/06/15 11:58:49;;;;;;;2.55;1.45;;;25.40;1.00;;;;;;4878154;29;20124;-55
2023/06/15 12:01:17;;;;;;;1.45;1.17;;;25.40;1.00;;;;;;4870258;29;20120;-57
2023/06/15 12:03:48;;;;;;;2.20;1.48;;;25.40;1.00;;;;;;4878441;29;20045;-56
2023/06/15 12:06:32;;;;;;;2.45;1.75;;;25.40;1.00;;;;;;4878160;29;20127;-56
2023/06/15 12:08:59;;;;;;;5.30;1.48;;;25.40;1.00;;;;;;4877947;29;20080;-57
2023/06/15 12:11:26;;;;;;;2.47;1.70;;;25.40;1.00;;;;;;4877650;29;20088;-55
2023/06/15 12:14:00;;;;;;;2.53;1.55;;;25.40;1.00;;;;;;4877894;29;20045;-57
2023/06/15 12:16:31;;;;;;;4.22;1.98;;;25.40;1.00;;;;;;4877996;29;20049;-55
2023/06/15 12:19:01;;;;;;;4.47;1.55;;;25.40;1.00;;;;;;4878016;29;20433;-57
2023/06/15 12:21:31;;;;;;;3.72;1.58;;;25.40;1.00;;;;;;4877576;29;20049;-58
2023/06/15 12:23:59;;;;;;;2.08;1.55;;;25.40;1.00;;;;;;4874690;29;20040;-57
2023/06/15 12:26:32;;;;;;;12.85;2.38;;;25.40;1.00;;;;;;4879159;29;20116;-57
2023/06/15 12:29:00;;;;;;;4.85;2.28;;;25.40;1.00;;;;;;4881003;29;20557;-53
2023/06/15 12:31:34;;;;;;;8.05;2.95;;;25.40;1.00;;;;;;4874522;29;20409;-56
2023/06/15 12:34:11;;;;;;;4.32;1.70;;;25.30;1.00;;;;;;4873568;29;20097;-54
2023/06/15 12:36:40;;;;;;;2.95;2.08;;;25.40;1.00;;;;;;4872495;29;20132;-55
2023/06/15 12:39:11;;;;;;;4.93;2.33;;;25.30;1.00;;;;;;4870812;29;20048;-57
2023/06/15 12:41:39;;;;;;;15.00;1.60;;;25.30;1.00;;;;;;4883028;29;20795;-55
2023/06/15 12:44:06;;;;;;;3.95;1.80;;;25.40;1.00;;;;;;4871477;29;20041;-55
2023/06/15 12:46:36;;;;;;;6.43;2.00;;;25.30;1.00;;;;;;4871611;29;20040;-56
2023/06/15 12:49:05;;;;;;;6.70;1.80;;;25.30;1.00;;;;;;4873485;29;20057;-57
2023/06/15 12:51:32;;;;;;;2.72;2.20;;;25.30;1.00;;;;;;4876863;29;20045;-54
2023/06/15 12:54:00;;;;;;;4.43;1.80;;;25.30;1.00;;;;;;4881188;29;20049;-54
2023/06/15 12:56:27;;;;;;;6.07;1.75;;;25.30;1.00;;;;;;4879803;29;20051;-57
2023/06/15 12:58:55;;;;;;;3.85;1.90;;;25.30;1.00;;;;;;4875935;29;20124;-55
2023/06/15 13:01:22;;;;;;;4.97;1.73;;;25.30;1.00;;;;;;4880936;29;20045;-56
2023/06/15 13:03:49;;;;;;;7.00;1.45;;;25.30;1.00;;;;;;4881152;29;20089;-56
2023/06/15 13:06:16;;;;;;;3.38;1.65;;;25.30;1.00;;;;;;4881070;29;20047;-57
2023/06/15 13:08:44;;;;;;;4.45;1.52;;;25.30;1.00;;;;;;4881164;29;20041;-56